sensor_id;sensor_type;location;lat;lon;timestamp;P1;durP1;ratioP1;P2;durP2;ratioP2
24585;SDS011;12743;52.262;6.172;2022-12-07T00:00:25;9.90;;;4.03;;
24585;SDS011;12743;52.262;6.172;2022-12-07T00:02:51;9.00;;;3.40;;
24585;SDS011;12743;52.262;6.172;2022-12-07T00:05:16;9.67;;;3.60;;
24585;SDS011;12743;52.262;6.172;2022-12-07T00:07:41;10.33;;;3.20;;
24585;SDS011;12743;52.262;6.172;2022-12-07T00:10:07;10.53;;;3.60;;
24585;SDS011;12743;52.262;6.172;2022-12-07T00:12:32;11.25;;;3.72;;
24585;SDS011;12743;52.262;6.172;2022-12-07T00:14:57;10.87;;;3.63;;
24585;SDS011;12743;52.262;6.172;2022-12-07T00:17:23;11.00;;;3.37;;
24585;SDS011;12743;52.262;6.172;2022-12-07T00:19:48;10.80;;;3.23;;
24585;SDS011;12743;52.262;6.172;2022-12-07T00:22:13;9.20;;;2.97;;
24585;SDS011;12743;52.262;6.172;2022-12-07T00:24:39;11.63;;;3.50;;
24585;SDS011;12743;52.262;6.172;2022-12-07T00:27:04;10.90;;;3.00;;
24585;SDS011;12743;52.262;6.172;2022-12-07T00:29:29;9.32;;;3.03;;
24585;SDS011;12743;52.262;6.172;2022-12-07T00:31:55;8.67;;;3.70;;
24585;SDS011;12743;52.262;6.172;2022-12-07T00:34:20;8.07;;;2.33;;
24585;SDS011;12743;52.262;6.172;2022-12-07T00:36:46;9.52;;;2.58;;
24585;SDS011;12743;52.262;6.172;2022-12-07T00:39:12;8.70;;;1.97;;
24585;SDS011;12743;52.262;6.172;2022-12-07T00:41:37;7.45;;;2.50;;
24585;SDS011;12743;52.262;6.172;2022-12-07T00:44:03;6.63;;;1.93;;
24585;SDS011;12743;52.262;6.172;2022-12-07T00:46:28;7.97;;;2.00;;
24585;SDS011;12743;52.262;6.172;2022-12-07T00:48:54;6.07;;;2.03;;
24585;SDS011;12743;52.262;6.172;2022-12-07T00:51:21;7.83;;;1.77;;
24585;SDS011;12743;52.262;6.172;2022-12-07T00:53:47;6.13;;;1.63;;
24585;SDS011;12743;52.262;6.172;2022-12-07T00:56:14;9.93;;;1.73;;
24585;SDS011;12743;52.262;6.172;2022-12-07T00:58:42;8.30;;;1.95;;
24585;SDS011;12743;52.262;6.172;2022-12-07T01:01:08;7.07;;;1.50;;
24585;SDS011;12743;52.262;6.172;2022-12-07T01:03:34;6.30;;;1.38;;
24585;SDS011;12743;52.262;6.172;2022-12-07T01:06:00;6.28;;;1.40;;
24585;SDS011;12743;52.262;6.172;2022-12-07T01:08:27;7.28;;;1.60;;
24585;SDS011;12743;52.262;6.172;2022-12-07T01:10:57;7.03;;;1.40;;
24585;SDS011;12743;52.262;6.172;2022-12-07T01:13:24;8.90;;;1.60;;
24585;SDS011;12743;52.262;6.172;2022-12-07T01:15:49;8.00;;;1.50;;
24585;SDS011;12743;52.262;6.172;2022-12-07T01:18:15;5.33;;;1.37;;
24585;SDS011;12743;52.262;6.172;2022-12-07T01:20:40;8.68;;;1.42;;
24585;SDS011;12743;52.262;6.172;2022-12-07T01:23:06;6.97;;;1.03;;
24585;SDS011;12743;52.262;6.172;2022-12-07T01:25:31;7.07;;;1.53;;
24585;SDS011;12743;52.262;6.172;2022-12-07T01:27:57;5.45;;;1.10;;
24585;SDS011;12743;52.262;6.172;2022-12-07T01:30:22;7.27;;;1.20;;
24585;SDS011;12743;52.262;6.172;2022-12-07T01:32:48;6.27;;;1.27;;
24585;SDS011;12743;52.262;6.172;2022-12-07T01:35:13;6.30;;;1.77;;
24585;SDS011;12743;52.262;6.172;2022-12-07T01:37:39;8.20;;;1.60;;
24585;SDS011;12743;52.262;6.172;2022-12-07T01:40:05;8.38;;;1.45;;
24585;SDS011;12743;52.262;6.172;2022-12-07T01:42:32;7.22;;;1.02;;
24585;SDS011;12743;52.262;6.172;2022-12-07T01:48:03;7.00;;;1.13;;
24585;SDS011;12743;52.262;6.172;2022-12-07T01:50:30;6.87;;;1.30;;
24585;SDS011;12743;52.262;6.172;2022-12-07T01:52:58;7.43;;;1.50;;
24585;SDS011;12743;52.262;6.172;2022-12-07T01:55:27;5.70;;;1.10;;
24585;SDS011;12743;52.262;6.172;2022-12-07T01:57:53;10.87;;;1.20;;
24585;SDS011;12743;52.262;6.172;2022-12-07T02:00:20;9.38;;;1.00;;
24585;SDS011;12743;52.262;6.172;2022-12-07T02:05:22;7.93;;;1.43;;
24585;SDS011;12743;52.262;6.172;2022-12-07T02:07:49;5.95;;;1.00;;
24585;SDS011;12743;52.262;6.172;2022-12-07T02:10:20;4.90;;;0.80;;
24585;SDS011;12743;52.262;6.172;2022-12-07T02:13:22;6.95;;;0.93;;
24585;SDS011;12743;52.262;6.172;2022-12-07T02:16:07;6.53;;;0.93;;
24585;SDS011;12743;52.262;6.172;2022-12-07T02:21:22;7.70;;;0.93;;
24585;SDS011;12743;52.262;6.172;2022-12-07T02:24:09;7.28;;;1.00;;
24585;SDS011;12743;52.262;6.172;2022-12-07T02:29:27;3.30;;;0.50;;
24585;SDS011;12743;52.262;6.172;2022-12-07T02:32:28;5.38;;;0.77;;
24585;SDS011;12743;52.262;6.172;2022-12-07T02:35:24;6.53;;;0.90;;
24585;SDS011;12743;52.262;6.172;2022-12-07T02:40:31;5.65;;;0.80;;
24585;SDS011;12743;52.262;6.172;2022-12-07T02:43:09;5.60;;;1.00;;
24585;SDS011;12743;52.262;6.172;2022-12-07T02:45:41;8.93;;;0.82;;
24585;SDS011;12743;52.262;6.172;2022-12-07T02:48:08;9.68;;;0.80;;
24585;SDS011;12743;52.262;6.172;2022-12-07T02:50:37;4.07;;;0.47;;
24585;SDS011;12743;52.262;6.172;2022-12-07T02:53:02;5.60;;;1.00;;
24585;SDS011;12743;52.262;6.172;2022-12-07T02:55:37;6.13;;;1.07;;
24585;SDS011;12743;52.262;6.172;2022-12-07T02:58:07;8.40;;;0.67;;
24585;SDS011;12743;52.262;6.172;2022-12-07T03:00:52;6.28;;;0.85;;
24585;SDS011;12743;52.262;6.172;2022-12-07T03:03:26;4.97;;;0.50;;
24585;SDS011;12743;52.262;6.172;2022-12-07T03:05:58;7.50;;;0.98;;
24585;SDS011;12743;52.262;6.172;2022-12-07T03:09:08;4.75;;;0.40;;
24585;SDS011;12743;52.262;6.172;2022-12-07T03:11:54;4.23;;;0.40;;
24585;SDS011;12743;52.262;6.172;2022-12-07T03:14:31;6.70;;;0.70;;
24585;SDS011;12743;52.262;6.172;2022-12-07T03:17:07;8.15;;;0.82;;
24585;SDS011;12743;52.262;6.172;2022-12-07T03:19:37;6.38;;;0.63;;
24585;SDS011;12743;52.262;6.172;2022-12-07T03:22:06;5.25;;;0.70;;
24585;SDS011;12743;52.262;6.172;2022-12-07T03:24:35;5.63;;;1.13;;
24585;SDS011;12743;52.262;6.172;2022-12-07T03:27:06;6.72;;;0.75;;
24585;SDS011;12743;52.262;6.172;2022-12-07T03:29:40;5.85;;;0.77;;
24585;SDS011;12743;52.262;6.172;2022-12-07T03:32:33;6.22;;;0.68;;
24585;SDS011;12743;52.262;6.172;2022-12-07T03:35:03;6.75;;;0.57;;
24585;SDS011;12743;52.262;6.172;2022-12-07T03:37:37;6.17;;;0.70;;
24585;SDS011;12743;52.262;6.172;2022-12-07T03:40:29;6.60;;;0.60;;
24585;SDS011;12743;52.262;6.172;2022-12-07T03:43:16;4.07;;;0.70;;
24585;SDS011;12743;52.262;6.172;2022-12-07T03:45:44;4.68;;;0.68;;
24585;SDS011;12743;52.262;6.172;2022-12-07T03:48:22;4.82;;;0.40;;
24585;SDS011;12743;52.262;6.172;2022-12-07T03:51:00;6.37;;;0.37;;
24585;SDS011;12743;52.262;6.172;2022-12-07T03:53:50;9.48;;;0.40;;
24585;SDS011;12743;52.262;6.172;2022-12-07T03:56:36;6.18;;;0.50;;
24585;SDS011;12743;52.262;6.172;2022-12-07T03:59:02;6.70;;;0.60;;
24585;SDS011;12743;52.262;6.172;2022-12-07T04:01:27;5.17;;;0.40;;
24585;SDS011;12743;52.262;6.172;2022-12-07T04:03:52;7.20;;;0.67;;
24585;SDS011;12743;52.262;6.172;2022-12-07T04:06:18;5.53;;;0.67;;
24585;SDS011;12743;52.262;6.172;2022-12-07T04:08:43;6.63;;;0.60;;
24585;SDS011;12743;52.262;6.172;2022-12-07T04:11:09;4.47;;;0.50;;
24585;SDS011;12743;52.262;6.172;2022-12-07T04:13:34;4.20;;;0.40;;
24585;SDS011;12743;52.262;6.172;2022-12-07T04:16:19;3.55;;;0.40;;
24585;SDS011;12743;52.262;6.172;2022-12-07T04:18:45;9.10;;;0.30;;
24585;SDS011;12743;52.262;6.172;2022-12-07T04:21:11;8.15;;;0.30;;
24585;SDS011;12743;52.262;6.172;2022-12-07T04:23:36;9.47;;;0.53;;
24585;SDS011;12743;52.262;6.172;2022-12-07T04:26:01;5.43;;;0.40;;
24585;SDS011;12743;52.262;6.172;2022-12-07T04:28:27;3.73;;;0.30;;
24585;SDS011;12743;52.262;6.172;2022-12-07T04:30:52;4.97;;;0.70;;
24585;SDS011;12743;52.262;6.172;2022-12-07T04:33:17;7.77;;;0.40;;
24585;SDS011;12743;52.262;6.172;2022-12-07T04:35:43;7.18;;;0.32;;
24585;SDS011;12743;52.262;6.172;2022-12-07T04:38:08;5.87;;;0.60;;
24585;SDS011;12743;52.262;6.172;2022-12-07T04:40:34;2.93;;;0.20;;
24585;SDS011;12743;52.262;6.172;2022-12-07T04:42:59;5.13;;;0.30;;
24585;SDS011;12743;52.262;6.172;2022-12-07T04:45:24;8.10;;;0.73;;
24585;SDS011;12743;52.262;6.172;2022-12-07T04:47:50;4.40;;;0.30;;
24585;SDS011;12743;52.262;6.172;2022-12-07T04:50:15;10.30;;;0.40;;
24585;SDS011;12743;52.262;6.172;2022-12-07T04:52:41;4.37;;;0.27;;
24585;SDS011;12743;52.262;6.172;2022-12-07T04:55:06;6.77;;;0.53;;
24585;SDS011;12743;52.262;6.172;2022-12-07T04:57:32;5.47;;;0.60;;
24585;SDS011;12743;52.262;6.172;2022-12-07T04:59:57;7.93;;;1.10;;
24585;SDS011;12743;52.262;6.172;2022-12-07T05:02:22;6.90;;;0.40;;
24585;SDS011;12743;52.262;6.172;2022-12-07T05:04:48;9.27;;;0.60;;
24585;SDS011;12743;52.262;6.172;2022-12-07T05:07:13;5.73;;;0.40;;
24585;SDS011;12743;52.262;6.172;2022-12-07T05:09:38;6.87;;;0.57;;
24585;SDS011;12743;52.262;6.172;2022-12-07T05:12:04;16.20;;;0.87;;
24585;SDS011;12743;52.262;6.172;2022-12-07T05:14:29;7.15;;;0.88;;
24585;SDS011;12743;52.262;6.172;2022-12-07T05:16:54;13.73;;;0.83;;
24585;SDS011;12743;52.262;6.172;2022-12-07T05:19:20;7.87;;;0.63;;
24585;SDS011;12743;52.262;6.172;2022-12-07T05:21:46;10.00;;;0.77;;
24585;SDS011;12743;52.262;6.172;2022-12-07T05:24:13;10.25;;;0.52;;
24585;SDS011;12743;52.262;6.172;2022-12-07T05:26:39;8.30;;;0.80;;
24585;SDS011;12743;52.262;6.172;2022-12-07T05:29:04;9.83;;;0.90;;
24585;SDS011;12743;52.262;6.172;2022-12-07T05:31:30;13.55;;;0.60;;
24585;SDS011;12743;52.262;6.172;2022-12-07T05:33:56;8.45;;;0.63;;
24585;SDS011;12743;52.262;6.172;2022-12-07T05:36:22;7.63;;;0.60;;
24585;SDS011;12743;52.262;6.172;2022-12-07T05:38:48;8.38;;;0.45;;
24585;SDS011;12743;52.262;6.172;2022-12-07T05:41:17;6.47;;;0.50;;
24585;SDS011;12743;52.262;6.172;2022-12-07T05:44:02;7.28;;;0.40;;
24585;SDS011;12743;52.262;6.172;2022-12-07T05:46:28;7.70;;;0.20;;
24585;SDS011;12743;52.262;6.172;2022-12-07T05:48:53;3.35;;;0.28;;
24585;SDS011;12743;52.262;6.172;2022-12-07T05:51:18;5.03;;;0.80;;
24585;SDS011;12743;52.262;6.172;2022-12-07T05:53:44;5.77;;;0.63;;
24585;SDS011;12743;52.262;6.172;2022-12-07T05:56:10;5.82;;;0.57;;
24585;SDS011;12743;52.262;6.172;2022-12-07T05:58:35;8.30;;;0.57;;
24585;SDS011;12743;52.262;6.172;2022-12-07T06:01:19;6.78;;;0.82;;
24585;SDS011;12743;52.262;6.172;2022-12-07T06:03:44;7.07;;;0.50;;
24585;SDS011;12743;52.262;6.172;2022-12-07T06:06:10;5.22;;;0.70;;
24585;SDS011;12743;52.262;6.172;2022-12-07T06:08:35;8.33;;;0.60;;
24585;SDS011;12743;52.262;6.172;2022-12-07T06:11:01;4.87;;;0.70;;
24585;SDS011;12743;52.262;6.172;2022-12-07T06:13:44;6.10;;;0.70;;
24585;SDS011;12743;52.262;6.172;2022-12-07T06:16:10;6.27;;;0.73;;
24585;SDS011;12743;52.262;6.172;2022-12-07T06:18:35;3.07;;;0.60;;
24585;SDS011;12743;52.262;6.172;2022-12-07T06:21:00;7.90;;;0.80;;
24585;SDS011;12743;52.262;6.172;2022-12-07T06:23:26;6.57;;;0.50;;
24585;SDS011;12743;52.262;6.172;2022-12-07T06:25:51;6.07;;;0.50;;
24585;SDS011;12743;52.262;6.172;2022-12-07T06:28:16;5.57;;;0.50;;
24585;SDS011;12743;52.262;6.172;2022-12-07T06:30:42;7.27;;;0.50;;
24585;SDS011;12743;52.262;6.172;2022-12-07T06:33:07;6.20;;;0.40;;
24585;SDS011;12743;52.262;6.172;2022-12-07T06:35:33;9.27;;;1.00;;
24585;SDS011;12743;52.262;6.172;2022-12-07T06:37:59;6.57;;;0.60;;
24585;SDS011;12743;52.262;6.172;2022-12-07T06:40:24;5.83;;;0.50;;
24585;SDS011;12743;52.262;6.172;2022-12-07T06:42:49;5.70;;;0.40;;
24585;SDS011;12743;52.262;6.172;2022-12-07T06:45:15;15.10;;;0.97;;
24585;SDS011;12743;52.262;6.172;2022-12-07T06:47:40;9.15;;;0.95;;
24585;SDS011;12743;52.262;6.172;2022-12-07T06:50:06;11.43;;;0.60;;
24585;SDS011;12743;52.262;6.172;2022-12-07T06:52:32;8.45;;;0.85;;
24585;SDS011;12743;52.262;6.172;2022-12-07T06:54:58;7.03;;;0.67;;
24585;SDS011;12743;52.262;6.172;2022-12-07T06:57:24;17.02;;;1.27;;
24585;SDS011;12743;52.262;6.172;2022-12-07T06:59:49;7.60;;;0.70;;
24585;SDS011;12743;52.262;6.172;2022-12-07T07:02:15;11.70;;;1.00;;
24585;SDS011;12743;52.262;6.172;2022-12-07T07:04:40;4.97;;;0.50;;
24585;SDS011;12743;52.262;6.172;2022-12-07T07:07:05;6.60;;;0.73;;
24585;SDS011;12743;52.262;6.172;2022-12-07T07:09:31;5.90;;;0.90;;
24585;SDS011;12743;52.262;6.172;2022-12-07T07:11:56;5.93;;;0.60;;
24585;SDS011;12743;52.262;6.172;2022-12-07T07:14:21;3.77;;;0.33;;
24585;SDS011;12743;52.262;6.172;2022-12-07T07:16:47;2.53;;;0.50;;
24585;SDS011;12743;52.262;6.172;2022-12-07T07:19:12;2.53;;;0.30;;
24585;SDS011;12743;52.262;6.172;2022-12-07T07:21:37;11.27;;;0.70;;
24585;SDS011;12743;52.262;6.172;2022-12-07T07:24:03;8.40;;;0.70;;
24585;SDS011;12743;52.262;6.172;2022-12-07T07:26:28;5.73;;;0.53;;
24585;SDS011;12743;52.262;6.172;2022-12-07T07:28:55;7.05;;;0.50;;
24585;SDS011;12743;52.262;6.172;2022-12-07T07:31:20;5.20;;;0.40;;
24585;SDS011;12743;52.262;6.172;2022-12-07T07:33:46;10.07;;;0.87;;
24585;SDS011;12743;52.262;6.172;2022-12-07T07:36:11;8.52;;;0.90;;
24585;SDS011;12743;52.262;6.172;2022-12-07T07:38:37;14.07;;;1.57;;
24585;SDS011;12743;52.262;6.172;2022-12-07T07:41:02;12.03;;;1.10;;
24585;SDS011;12743;52.262;6.172;2022-12-07T07:43:28;16.30;;;1.37;;
24585;SDS011;12743;52.262;6.172;2022-12-07T07:45:53;9.33;;;1.37;;
24585;SDS011;12743;52.262;6.172;2022-12-07T07:48:18;9.63;;;1.05;;
24585;SDS011;12743;52.262;6.172;2022-12-07T07:50:44;10.30;;;1.43;;
24585;SDS011;12743;52.262;6.172;2022-12-07T07:53:09;12.10;;;1.87;;
24585;SDS011;12743;52.262;6.172;2022-12-07T07:55:34;13.00;;;1.97;;
24585;SDS011;12743;52.262;6.172;2022-12-07T07:58:00;9.93;;;1.77;;
24585;SDS011;12743;52.262;6.172;2022-12-07T08:00:25;11.33;;;1.60;;
24585;SDS011;12743;52.262;6.172;2022-12-07T08:02:50;8.35;;;0.85;;
24585;SDS011;12743;52.262;6.172;2022-12-07T08:05:16;7.40;;;1.10;;
24585;SDS011;12743;52.262;6.172;2022-12-07T08:07:41;11.70;;;1.20;;
24585;SDS011;12743;52.262;6.172;2022-12-07T08:10:07;7.50;;;0.73;;
24585;SDS011;12743;52.262;6.172;2022-12-07T08:12:36;11.17;;;0.97;;
24585;SDS011;12743;52.262;6.172;2022-12-07T08:15:26;14.77;;;1.15;;
24585;SDS011;12743;52.262;6.172;2022-12-07T08:17:53;7.05;;;0.70;;
24585;SDS011;12743;52.262;6.172;2022-12-07T08:20:19;10.02;;;1.27;;
24585;SDS011;12743;52.262;6.172;2022-12-07T08:22:44;6.37;;;1.10;;
24585;SDS011;12743;52.262;6.172;2022-12-07T08:25:10;8.10;;;0.80;;
24585;SDS011;12743;52.262;6.172;2022-12-07T08:27:35;12.87;;;0.63;;
24585;SDS011;12743;52.262;6.172;2022-12-07T08:30:00;13.27;;;1.75;;
24585;SDS011;12743;52.262;6.172;2022-12-07T08:32:26;9.37;;;0.63;;
24585;SDS011;12743;52.262;6.172;2022-12-07T08:34:51;6.40;;;0.50;;
24585;SDS011;12743;52.262;6.172;2022-12-07T08:37:17;6.20;;;0.70;;
24585;SDS011;12743;52.262;6.172;2022-12-07T08:39:42;7.73;;;0.60;;
24585;SDS011;12743;52.262;6.172;2022-12-07T08:42:08;3.17;;;0.50;;
24585;SDS011;12743;52.262;6.172;2022-12-07T08:44:33;6.00;;;0.60;;
24585;SDS011;12743;52.262;6.172;2022-12-07T08:47:00;7.20;;;0.70;;
24585;SDS011;12743;52.262;6.172;2022-12-07T08:49:31;6.68;;;0.80;;
24585;SDS011;12743;52.262;6.172;2022-12-07T08:52:01;9.43;;;0.60;;
24585;SDS011;12743;52.262;6.172;2022-12-07T08:54:29;6.00;;;0.45;;
24585;SDS011;12743;52.262;6.172;2022-12-07T08:56:54;5.63;;;0.83;;
24585;SDS011;12743;52.262;6.172;2022-12-07T08:59:20;3.43;;;0.43;;
24585;SDS011;12743;52.262;6.172;2022-12-07T09:01:46;4.20;;;0.70;;
24585;SDS011;12743;52.262;6.172;2022-12-07T09:04:11;7.20;;;0.47;;
24585;SDS011;12743;52.262;6.172;2022-12-07T09:06:36;7.27;;;1.03;;
24585;SDS011;12743;52.262;6.172;2022-12-07T09:09:02;5.90;;;1.10;;
24585;SDS011;12743;52.262;6.172;2022-12-07T09:11:29;7.55;;;0.80;;
24585;SDS011;12743;52.262;6.172;2022-12-07T09:13:54;5.72;;;0.57;;
24585;SDS011;12743;52.262;6.172;2022-12-07T09:16:20;8.18;;;0.88;;
24585;SDS011;12743;52.262;6.172;2022-12-07T09:18:46;7.53;;;0.63;;
24585;SDS011;12743;52.262;6.172;2022-12-07T09:21:11;6.20;;;0.57;;
24585;SDS011;12743;52.262;6.172;2022-12-07T09:23:36;11.27;;;0.87;;
24585;SDS011;12743;52.262;6.172;2022-12-07T09:26:02;6.67;;;0.73;;
24585;SDS011;12743;52.262;6.172;2022-12-07T09:28:32;7.57;;;0.73;;
24585;SDS011;12743;52.262;6.172;2022-12-07T09:30:57;9.25;;;0.70;;
24585;SDS011;12743;52.262;6.172;2022-12-07T09:33:23;11.60;;;0.90;;
24585;SDS011;12743;52.262;6.172;2022-12-07T09:35:49;11.87;;;0.70;;
24585;SDS011;12743;52.262;6.172;2022-12-07T09:38:16;6.43;;;0.50;;
24585;SDS011;12743;52.262;6.172;2022-12-07T09:40:42;8.95;;;0.95;;
24585;SDS011;12743;52.262;6.172;2022-12-07T09:43:14;12.95;;;0.88;;
24585;SDS011;12743;52.262;6.172;2022-12-07T09:45:42;8.83;;;0.53;;
24585;SDS011;12743;52.262;6.172;2022-12-07T09:48:15;8.77;;;0.82;;
24585;SDS011;12743;52.262;6.172;2022-12-07T09:50:44;10.70;;;0.82;;
24585;SDS011;12743;52.262;6.172;2022-12-07T09:53:15;13.65;;;0.82;;
24585;SDS011;12743;52.262;6.172;2022-12-07T09:55:47;15.30;;;1.33;;
24585;SDS011;12743;52.262;6.172;2022-12-07T09:58:17;11.97;;;1.10;;
24585;SDS011;12743;52.262;6.172;2022-12-07T10:00:47;14.48;;;0.95;;
24585;SDS011;12743;52.262;6.172;2022-12-07T10:03:12;11.60;;;1.83;;
24585;SDS011;12743;52.262;6.172;2022-12-07T10:05:55;13.73;;;1.00;;
24585;SDS011;12743;52.262;6.172;2022-12-07T10:08:22;10.25;;;0.93;;
24585;SDS011;12743;52.262;6.172;2022-12-07T10:10:54;6.20;;;0.50;;
24585;SDS011;12743;52.262;6.172;2022-12-07T10:13:34;8.77;;;1.10;;
24585;SDS011;12743;52.262;6.172;2022-12-07T10:16:03;9.60;;;1.10;;
24585;SDS011;12743;52.262;6.172;2022-12-07T10:26:35;5.63;;;0.40;;
24585;SDS011;12743;52.262;6.172;2022-12-07T10:29:02;6.95;;;0.63;;
24585;SDS011;12743;52.262;6.172;2022-12-07T10:31:39;9.77;;;0.45;;
24585;SDS011;12743;52.262;6.172;2022-12-07T10:34:12;7.15;;;0.43;;
24585;SDS011;12743;52.262;6.172;2022-12-07T10:36:45;5.37;;;0.57;;
24585;SDS011;12743;52.262;6.172;2022-12-07T10:39:12;25.58;;;2.08;;
24585;SDS011;12743;52.262;6.172;2022-12-07T10:41:56;5.07;;;0.50;;
24585;SDS011;12743;52.262;6.172;2022-12-07T10:44:29;8.02;;;0.90;;
24585;SDS011;12743;52.262;6.172;2022-12-07T10:50:02;9.05;;;0.63;;
24585;SDS011;12743;52.262;6.172;2022-12-07T10:55:56;10.87;;;0.40;;
24585;SDS011;12743;52.262;6.172;2022-12-07T10:58:37;6.13;;;0.35;;
24585;SDS011;12743;52.262;6.172;2022-12-07T11:01:25;3.92;;;0.45;;
24585;SDS011;12743;52.262;6.172;2022-12-07T11:06:55;7.25;;;0.40;;
24585;SDS011;12743;52.262;6.172;2022-12-07T11:09:43;6.00;;;0.60;;
24585;SDS011;12743;52.262;6.172;2022-12-07T11:14:58;5.28;;;0.52;;
24585;SDS011;12743;52.262;6.172;2022-12-07T11:17:34;6.50;;;0.40;;
24585;SDS011;12743;52.262;6.172;2022-12-07T11:20:28;4.38;;;0.57;;
24585;SDS011;12743;52.262;6.172;2022-12-07T11:22:57;6.30;;;0.57;;
24585;SDS011;12743;52.262;6.172;2022-12-07T11:25:34;10.43;;;0.70;;
24585;SDS011;12743;52.262;6.172;2022-12-07T11:31:01;8.38;;;0.90;;
24585;SDS011;12743;52.262;6.172;2022-12-07T11:33:46;9.55;;;0.90;;
24585;SDS011;12743;52.262;6.172;2022-12-07T11:39:11;8.55;;;0.68;;
24585;SDS011;12743;52.262;6.172;2022-12-07T11:41:48;6.00;;;0.57;;
24585;SDS011;12743;52.262;6.172;2022-12-07T11:47:38;5.82;;;0.75;;
24585;SDS011;12743;52.262;6.172;2022-12-07T11:50:30;6.90;;;0.73;;
24585;SDS011;12743;52.262;6.172;2022-12-07T11:53:09;7.78;;;0.68;;
24585;SDS011;12743;52.262;6.172;2022-12-07T12:01:14;9.93;;;0.60;;
24585;SDS011;12743;52.262;6.172;2022-12-07T12:04:01;7.53;;;0.70;;
24585;SDS011;12743;52.262;6.172;2022-12-07T12:06:36;5.97;;;0.80;;
24585;SDS011;12743;52.262;6.172;2022-12-07T12:09:06;7.15;;;0.65;;
24585;SDS011;12743;52.262;6.172;2022-12-07T12:11:50;5.68;;;0.80;;
24585;SDS011;12743;52.262;6.172;2022-12-07T12:14:40;5.13;;;0.40;;
24585;SDS011;12743;52.262;6.172;2022-12-07T12:23:15;4.53;;;0.50;;
24585;SDS011;12743;52.262;6.172;2022-12-07T12:26:18;8.65;;;0.63;;
24585;SDS011;12743;52.262;6.172;2022-12-07T12:33:54;5.80;;;0.40;;
24585;SDS011;12743;52.262;6.172;2022-12-07T12:46:55;6.50;;;0.43;;
24585;SDS011;12743;52.262;6.172;2022-12-07T12:51:51;8.60;;;0.40;;
24585;SDS011;12743;52.262;6.172;2022-12-07T12:56:49;10.63;;;0.73;;
24585;SDS011;12743;52.262;6.172;2022-12-07T13:04:56;7.13;;;0.57;;
24585;SDS011;12743;52.262;6.172;2022-12-07T13:15:41;6.97;;;0.40;;
24585;SDS011;12743;52.262;6.172;2022-12-07T13:20:56;8.60;;;0.80;;
24585;SDS011;12743;52.262;6.172;2022-12-07T13:23:23;3.90;;;0.30;;
24585;SDS011;12743;52.262;6.172;2022-12-07T13:25:54;8.95;;;1.73;;
24585;SDS011;12743;52.262;6.172;2022-12-07T13:28:26;5.10;;;0.35;;
24585;SDS011;12743;52.262;6.172;2022-12-07T13:31:19;9.43;;;0.83;;
24585;SDS011;12743;52.262;6.172;2022-12-07T13:33:46;5.90;;;0.30;;
24585;SDS011;12743;52.262;6.172;2022-12-07T13:36:14;3.35;;;0.20;;
24585;SDS011;12743;52.262;6.172;2022-12-07T13:39:32;7.82;;;0.85;;
24585;SDS011;12743;52.262;6.172;2022-12-07T13:41:43;5.50;;;0.30;;
24585;SDS011;12743;52.262;6.172;2022-12-07T13:44:10;6.20;;;0.30;;
24585;SDS011;12743;52.262;6.172;2022-12-07T13:49:17;6.13;;;0.32;;
24585;SDS011;12743;52.262;6.172;2022-12-07T13:51:44;5.22;;;0.20;;
24585;SDS011;12743;52.262;6.172;2022-12-07T13:54:10;5.00;;;0.30;;
24585;SDS011;12743;52.262;6.172;2022-12-07T13:56:37;4.18;;;0.50;;
24585;SDS011;12743;52.262;6.172;2022-12-07T13:59:12;6.07;;;0.85;;
24585;SDS011;12743;52.262;6.172;2022-12-07T14:01:41;6.75;;;0.32;;
24585;SDS011;12743;52.262;6.172;2022-12-07T14:04:16;3.13;;;0.30;;
24585;SDS011;12743;52.262;6.172;2022-12-07T14:07:01;3.70;;;0.30;;
24585;SDS011;12743;52.262;6.172;2022-12-07T14:09:53;10.75;;;0.73;;
24585;SDS011;12743;52.262;6.172;2022-12-07T14:12:26;4.65;;;0.40;;
24585;SDS011;12743;52.262;6.172;2022-12-07T14:14:53;6.73;;;0.50;;
24585;SDS011;12743;52.262;6.172;2022-12-07T14:17:20;7.97;;;0.65;;
24585;SDS011;12743;52.262;6.172;2022-12-07T14:19:51;8.32;;;0.55;;
24585;SDS011;12743;52.262;6.172;2022-12-07T14:22:28;4.90;;;0.50;;
24585;SDS011;12743;52.262;6.172;2022-12-07T14:24:59;4.68;;;0.30;;
24585;SDS011;12743;52.262;6.172;2022-12-07T14:27:30;7.37;;;0.30;;
24585;SDS011;12743;52.262;6.172;2022-12-07T14:30:00;7.95;;;0.55;;
24585;SDS011;12743;52.262;6.172;2022-12-07T14:32:27;6.90;;;0.60;;
24585;SDS011;12743;52.262;6.172;2022-12-07T14:37:23;10.48;;;0.57;;
24585;SDS011;12743;52.262;6.172;2022-12-07T14:39:49;6.13;;;0.53;;
24585;SDS011;12743;52.262;6.172;2022-12-07T14:42:15;7.35;;;0.60;;
24585;SDS011;12743;52.262;6.172;2022-12-07T14:44:40;7.47;;;0.73;;
24585;SDS011;12743;52.262;6.172;2022-12-07T14:47:08;8.70;;;0.43;;
24585;SDS011;12743;52.262;6.172;2022-12-07T14:49:36;6.43;;;0.50;;
24585;SDS011;12743;52.262;6.172;2022-12-07T14:52:02;5.93;;;0.40;;
24585;SDS011;12743;52.262;6.172;2022-12-07T14:54:29;7.28;;;0.40;;
24585;SDS011;12743;52.262;6.172;2022-12-07T14:56:56;4.65;;;0.70;;
24585;SDS011;12743;52.262;6.172;2022-12-07T14:59:22;3.13;;;0.20;;
24585;SDS011;12743;52.262;6.172;2022-12-07T15:01:47;9.63;;;0.40;;
24585;SDS011;12743;52.262;6.172;2022-12-07T15:04:13;2.87;;;0.80;;
24585;SDS011;12743;52.262;6.172;2022-12-07T15:06:38;4.10;;;0.30;;
24585;SDS011;12743;52.262;6.172;2022-12-07T15:09:04;6.33;;;0.53;;
24585;SDS011;12743;52.262;6.172;2022-12-07T15:11:29;3.37;;;0.20;;
24585;SDS011;12743;52.262;6.172;2022-12-07T15:13:55;5.05;;;0.20;;
24585;SDS011;12743;52.262;6.172;2022-12-07T15:16:40;2.23;;;0.10;;
24585;SDS011;12743;52.262;6.172;2022-12-07T15:19:10;3.75;;;0.30;;
24585;SDS011;12743;52.262;6.172;2022-12-07T15:21:39;3.55;;;0.17;;
24585;SDS011;12743;52.262;6.172;2022-12-07T15:24:05;4.03;;;0.20;;
24585;SDS011;12743;52.262;6.172;2022-12-07T15:26:30;5.77;;;0.20;;
24585;SDS011;12743;52.262;6.172;2022-12-07T15:28:56;2.92;;;0.30;;
24585;SDS011;12743;52.262;6.172;2022-12-07T15:31:21;3.30;;;0.23;;
24585;SDS011;12743;52.262;6.172;2022-12-07T15:33:47;3.47;;;0.30;;
24585;SDS011;12743;52.262;6.172;2022-12-07T15:36:18;3.07;;;0.30;;
24585;SDS011;12743;52.262;6.172;2022-12-07T15:38:46;2.28;;;0.20;;
24585;SDS011;12743;52.262;6.172;2022-12-07T15:41:11;6.07;;;0.77;;
24585;SDS011;12743;52.262;6.172;2022-12-07T15:43:37;3.87;;;0.33;;
24585;SDS011;12743;52.262;6.172;2022-12-07T15:46:21;3.57;;;0.53;;
24585;SDS011;12743;52.262;6.172;2022-12-07T15:48:46;4.47;;;0.32;;
24585;SDS011;12743;52.262;6.172;2022-12-07T15:51:11;6.20;;;0.60;;
24585;SDS011;12743;52.262;6.172;2022-12-07T15:53:37;7.00;;;0.60;;
24585;SDS011;12743;52.262;6.172;2022-12-07T15:56:06;4.68;;;0.57;;
24585;SDS011;12743;52.262;6.172;2022-12-07T15:58:32;4.32;;;0.77;;
24585;SDS011;12743;52.262;6.172;2022-12-07T16:00:57;6.67;;;1.37;;
24585;SDS011;12743;52.262;6.172;2022-12-07T16:03:23;4.53;;;0.73;;
24585;SDS011;12743;52.262;6.172;2022-12-07T16:05:51;6.33;;;1.00;;
24585;SDS011;12743;52.262;6.172;2022-12-07T16:08:18;3.42;;;0.60;;
24585;SDS011;12743;52.262;6.172;2022-12-07T16:10:43;4.67;;;0.60;;
24585;SDS011;12743;52.262;6.172;2022-12-07T16:13:09;5.88;;;0.60;;
24585;SDS011;12743;52.262;6.172;2022-12-07T16:15:38;2.70;;;0.60;;
24585;SDS011;12743;52.262;6.172;2022-12-07T16:18:04;4.35;;;0.68;;
24585;SDS011;12743;52.262;6.172;2022-12-07T16:20:29;7.23;;;0.50;;
24585;SDS011;12743;52.262;6.172;2022-12-07T16:22:55;4.10;;;0.70;;
24585;SDS011;12743;52.262;6.172;2022-12-07T16:25:20;7.80;;;0.95;;
24585;SDS011;12743;52.262;6.172;2022-12-07T16:27:46;6.53;;;1.27;;
24585;SDS011;12743;52.262;6.172;2022-12-07T16:30:11;5.53;;;1.23;;
24585;SDS011;12743;52.262;6.172;2022-12-07T16:32:37;6.30;;;1.35;;
24585;SDS011;12743;52.262;6.172;2022-12-07T16:35:02;6.30;;;1.27;;